F/v_l'omerta — FHXG — position and weather

sailwx.info

Track history (hours):
 
Tides and Currents Weather Stations Pressure Air Temp Water Temp Dewpoint Dewpoint Depression Visibility Wind Speed Wind Dir Waves Ship Positions

F/v_l'omerta

Last reported at 2017-Feb-22 22:23 UTC. Time now 2017-Feb-23 04:47 UTC.
Position N 46°34' W 002°37'.

Length 18 m.

Type: Fishing. MMSI: 227903000.

Date/timePositionNaut miles runAvg speedWind from/ knotsBaromVisibWave heightAir tempDewpointWater temp
2017-Feb-22 22:23N 46°34' W 002°37'6 2.6
2017-Feb-22 20:15N 46°34' W 002°29'2 3.3
2017-Feb-22 19:32N 46°33' W 002°26'4 3.3
2017-Feb-22 18:28N 46°35' W 002°22'2 1.8
2017-Feb-22 17:33N 46°35' W 002°20'3 2.8
2017-Feb-22 16:29N 46°32' W 002°21'2 2.2
2017-Feb-22 15:33N 46°32' W 002°24'5 3.3
2017-Feb-22 14:09N 46°35' W 002°19'4 7.0
2017-Feb-22 13:33N 46°34' W 002°14'9 9.2
2017-Feb-22 12:33N 46°31' W 002°01'9 9.1
2017-Feb-22 11:33N 46°29' W 001°48'1 1.4
2017-Feb-22 10:33N 46°30' W 001°47'0 0.0
2017-Feb-22 09:33N 46°30' W 001°47'0 0.0
2017-Feb-22 08:33N 46°30' W 001°47'0 0.0
2017-Feb-22 07:33N 46°30' W 001°47'0 0.0
2017-Feb-22 06:33N 46°30' W 001°47'0 0.0
2017-Feb-22 05:33N 46°30' W 001°47'0 0.0
2017-Feb-22 04:33N 46°30' W 001°47'0 0.0
2017-Feb-22 03:33N 46°30' W 001°47'0 0.0
2017-Feb-22 02:33N 46°30' W 001°47'0 0.0
2017-Feb-22 01:33N 46°30' W 001°47'0 0.0
2017-Feb-22 00:33N 46°30' W 001°47'0 0.0
2017-Feb-21 23:33N 46°30' W 001°47'0 0.0
2017-Feb-21 22:33N 46°30' W 001°47'0 0.0
2017-Feb-21 21:33N 46°30' W 001°47'0 0.0
2017-Feb-21 20:33N 46°30' W 001°47'0 0.0
2017-Feb-21 19:33N 46°30' W 001°47'0 0.0
2017-Feb-21 18:33N 46°30' W 001°47'0 0.0
2017-Feb-21 17:33N 46°30' W 001°47'0 0.1
2017-Feb-21 16:33N 46°30' W 001°47'3 3.4
2017-Feb-21 15:33N 46°29' W 001°52'9 9.4
2017-Feb-21 14:33N 46°32' W 002°05'19 9.4
2017-Feb-21 12:30N 46°38' W 002°32'12 1.7
2017-Feb-21 05:25N 46°43' W 002°48'4 3.2
2017-Feb-21 04:14N 46°42' W 002°43'23 1.2
2017-Feb-20 09:28N 46°33' W 002°11'8 9.2
2017-Feb-20 08:33N 46°30' W 001°60'9 8.8
2017-Feb-20 07:33N 46°29' W 001°47'1 1.2
2017-Feb-20 06:33N 46°30' W 001°47'0 0.0
2017-Feb-20 05:33N 46°30' W 001°47'0 0.0
2017-Feb-20 04:33N 46°30' W 001°47'0 0.0
2017-Feb-20 03:33N 46°30' W 001°47'0 0.0
2017-Feb-20 02:33N 46°30' W 001°47'0 0.0
2017-Feb-20 01:33N 46°30' W 001°47'0 0.0
2017-Feb-20 00:33N 46°30' W 001°47'0 0.0
2017-Feb-19 23:33N 46°30' W 001°47'0 0.0
2017-Feb-19 22:33N 46°30' W 001°47'0 0.0
2017-Feb-19 21:33N 46°30' W 001°47'0 0.0
2017-Feb-19 20:33N 46°30' W 001°47'0 0.0
2017-Feb-19 19:33N 46°30' W 001°47'0 0.1
2017-Feb-19 18:33N 46°30' W 001°47'0 0.2
2017-Feb-19 17:33N 46°30' W 001°47'4 3.6
2017-Feb-19 16:33N 46°28' W 001°52'9 9.0
2017-Feb-19 15:33N 46°26' W 002°05'4 3.7
2017-Feb-19 14:33N 46°27' W 002°10'3 3.3
2017-Feb-19 13:33N 46°30' W 002°13'4 3.3
2017-Feb-19 12:29N 46°33' W 002°16'3 3.4
2017-Feb-19 11:33N 46°35' W 002°18'3 2.6
2017-Feb-19 10:33N 46°37' W 002°22'4 3.0
2017-Feb-19 09:19N 46°33' W 002°24'2 3.0
2017-Feb-19 08:30N 46°34' W 002°28'4 3.3
2017-Feb-19 07:16N 46°35' W 002°33'2 2.3
2017-Feb-19 06:30N 46°35' W 002°36'3 3.4
2017-Feb-19 05:32N 46°38' W 002°38'4 3.5
2017-Feb-19 04:24N 46°41' W 002°41'2 3.0
2017-Feb-19 03:33N 46°42' W 002°45'1 1.4
2017-Feb-19 02:32N 46°40' W 002°45'1 1.3
2017-Feb-19 01:28N 46°40' W 002°47'2 1.9
2017-Feb-19 00:12N 46°43' W 002°47'3 3.6
2017-Feb-18 23:25N 46°44' W 002°43'4 0.7
2017-Feb-18 17:12N 46°42' W 002°49'2 2.3
2017-Feb-18 16:32N 46°43' W 002°47'3 2.7
2017-Feb-18 15:28N 46°40' W 002°47'2 2.5
2017-Feb-18 14:31N 46°42' W 002°49'2 2.0
2017-Feb-18 13:33N 46°42' W 002°46'3 2.6
2017-Feb-18 12:33N 46°39' W 002°46'3 3.2
2017-Feb-18 11:28N 46°42' W 002°49'1 1.4
2017-Feb-18 10:31N 46°43' W 002°47'2 1.1
2017-Feb-18 08:33N 46°41' W 002°48'2 2.1
2017-Feb-18 07:31N 46°43' W 002°47'2 2.5
2017-Feb-18 06:33N 46°43' W 002°44'2 2.3
2017-Feb-18 05:33N 46°42' W 002°41'3 3.2
2017-Feb-18 04:33N 46°42' W 002°45'3 3.0
2017-Feb-18 03:33N 46°44' W 002°43'2 2.3
2017-Feb-18 02:32N 46°42' W 002°41'7 1.1
2017-Feb-17 20:33N 46°36' W 002°37'3 3.2
2017-Feb-17 19:30N 46°33' W 002°36'3 2.7
2017-Feb-17 18:30N 46°31' W 002°32'8 3.3
2017-Feb-17 16:12N 46°26' W 002°25'2 3.5
2017-Feb-17 15:33N 46°26' W 002°21'7 0.7
2017-Feb-17 06:16N 46°32' W 002°26'2 3.0
2017-Feb-17 05:33N 46°33' W 002°24'4 3.2
2017-Feb-17 04:15N 46°36' W 002°20'2 0.5
2017-Feb-17 01:05N 46°36' W 002°22'2 3.3
2017-Feb-17 00:33N 46°36' W 002°20'8 7.9
2017-Feb-16 23:32N 46°33' W 002°09'9 9.5
2017-Feb-16 22:33N 46°30' W 001°56'6 6.2
2017-Feb-16 21:33N 46°30' W 001°47'0 0.1
2017-Feb-16 20:33N 46°30' W 001°47'8 7.8
2017-Feb-16 19:33N 46°26' W 001°57'5 4.7
2017-Feb-16 18:33N 46°25' W 002°04'3 3.4
2017-Feb-16 17:33N 46°23' W 002°08'7 3.4
2017-Feb-16 15:33N 46°17' W 002°13'2 1.2
2017-Feb-16 13:33N 46°16' W 002°16'3 1.8
2017-Feb-16 12:04N 46°14' W 002°14'3 3.3
2017-Feb-16 11:05N 46°17' W 002°13'6 1.5
2017-Feb-16 07:18N 46°23' W 002°13'10 2.4
2017-Feb-16 03:13N 46°32' W 002°16'2 3.1
2017-Feb-16 02:33N 46°34' W 002°17'3 3.2
2017-Feb-16 01:33N 46°36' W 002°20'2 2.4
2017-Feb-16 00:33N 46°35' W 002°23'6 0.2
2017-Feb-14 22:33N 46°34' W 002°14'10 9.7
2017-Feb-14 21:33N 46°31' W 002°01'9 9.3
2017-Feb-14 20:33N 46°28' W 001°48'2 1.7
2017-Feb-14 19:33N 46°30' W 001°47'0 0.2
2017-Feb-14 18:33N 46°30' W 001°47'1 1.1
2017-Feb-14 17:33N 46°29' W 001°47'10 9.5
2017-Feb-14 16:33N 46°27' W 002°01'11 8.2
2017-Feb-14 15:16N 46°26' W 002°16'3 2.4
2017-Feb-14 14:12N 46°25' W 002°13'2 3.1
2017-Feb-14 13:28N 46°23' W 002°12'6 1.3
2017-Feb-14 08:33N 46°26' W 002°20'3 2.5
2017-Feb-14 07:29N 46°24' W 002°17'2 0.6
2017-Feb-14 04:32N 46°26' W 002°17'6 2.5
2017-Feb-14 02:15N 46°23' W 002°10'3 3.4
2017-Feb-14 01:24N 46°20' W 002°08'2 2.7
2017-Feb-14 00:31N 46°18' W 002°10'3 0.4
2017-Feb-13 17:10N 46°17' W 002°14'6 3.4
2017-Feb-13 15:31N 46°23' W 002°15'5 2.1
2017-Feb-13 13:20N 46°26' W 002°20'  
Track history (hours):
 
Tides and Currents Weather Stations Pressure Air Temp Water Temp Dewpoint Dewpoint Depression Visibility Wind Speed Wind Dir Waves Ship Positions

F/v_l'omerta

Last reported at 2017-Feb-22 22:23 UTC. Time now 2017-Feb-23 04:47 UTC.
Position N 46°34' W 002°37'.

Length 18 m.

Type: Fishing. MMSI: 227903000.

Date/timePositionNaut miles runAvg speedWind from/ knotsBaromVisibWave heightAir tempDewpointWater temp
2017-Feb-22 22:23N 46°34' W 002°37'6 2.6
2017-Feb-22 20:15N 46°34' W 002°29'2 3.3
2017-Feb-22 19:32N 46°33' W 002°26'4 3.3
2017-Feb-22 18:28N 46°35' W 002°22'2 1.8
2017-Feb-22 17:33N 46°35' W 002°20'3 2.8
2017-Feb-22 16:29N 46°32' W 002°21'2 2.2
2017-Feb-22 15:33N 46°32' W 002°24'5 3.3
2017-Feb-22 14:09N 46°35' W 002°19'4 7.0
2017-Feb-22 13:33N 46°34' W 002°14'9 9.2
2017-Feb-22 12:33N 46°31' W 002°01'9 9.1
2017-Feb-22 11:33N 46°29' W 001°48'1 1.4
2017-Feb-22 10:33N 46°30' W 001°47'0 0.0
2017-Feb-22 09:33N 46°30' W 001°47'0 0.0
2017-Feb-22 08:33N 46°30' W 001°47'0 0.0
2017-Feb-22 07:33N 46°30' W 001°47'0 0.0
2017-Feb-22 06:33N 46°30' W 001°47'0 0.0
2017-Feb-22 05:33N 46°30' W 001°47'0 0.0
2017-Feb-22 04:33N 46°30' W 001°47'0 0.0
2017-Feb-22 03:33N 46°30' W 001°47'0 0.0
2017-Feb-22 02:33N 46°30' W 001°47'0 0.0
2017-Feb-22 01:33N 46°30' W 001°47'0 0.0
2017-Feb-22 00:33N 46°30' W 001°47'0 0.0
2017-Feb-21 23:33N 46°30' W 001°47'0 0.0
2017-Feb-21 22:33N 46°30' W 001°47'0 0.0
2017-Feb-21 21:33N 46°30' W 001°47'0 0.0
2017-Feb-21 20:33N 46°30' W 001°47'0 0.0
2017-Feb-21 19:33N 46°30' W 001°47'0 0.0
2017-Feb-21 18:33N 46°30' W 001°47'0 0.0
2017-Feb-21 17:33N 46°30' W 001°47'0 0.1
2017-Feb-21 16:33N 46°30' W 001°47'3 3.4
2017-Feb-21 15:33N 46°29' W 001°52'9 9.4
2017-Feb-21 14:33N 46°32' W 002°05'19 9.4
2017-Feb-21 12:30N 46°38' W 002°32'12 1.7
2017-Feb-21 05:25N 46°43' W 002°48'4 3.2
2017-Feb-21 04:14N 46°42' W 002°43'23 1.2
2017-Feb-20 09:28N 46°33' W 002°11'8 9.2
2017-Feb-20 08:33N 46°30' W 001°60'9 8.8
2017-Feb-20 07:33N 46°29' W 001°47'1 1.2
2017-Feb-20 06:33N 46°30' W 001°47'0 0.0
2017-Feb-20 05:33N 46°30' W 001°47'0 0.0
2017-Feb-20 04:33N 46°30' W 001°47'0 0.0
2017-Feb-20 03:33N 46°30' W 001°47'0 0.0
2017-Feb-20 02:33N 46°30' W 001°47'0 0.0
2017-Feb-20 01:33N 46°30' W 001°47'0 0.0
2017-Feb-20 00:33N 46°30' W 001°47'0 0.0
2017-Feb-19 23:33N 46°30' W 001°47'0 0.0
2017-Feb-19 22:33N 46°30' W 001°47'0 0.0
2017-Feb-19 21:33N 46°30' W 001°47'0 0.0
2017-Feb-19 20:33N 46°30' W 001°47'0 0.0
2017-Feb-19 19:33N 46°30' W 001°47'0 0.1
2017-Feb-19 18:33N 46°30' W 001°47'0 0.2
2017-Feb-19 17:33N 46°30' W 001°47'4 3.6
2017-Feb-19 16:33N 46°28' W 001°52'9 9.0
2017-Feb-19 15:33N 46°26' W 002°05'4 3.7
2017-Feb-19 14:33N 46°27' W 002°10'3 3.3
2017-Feb-19 13:33N 46°30' W 002°13'4 3.3
2017-Feb-19 12:29N 46°33' W 002°16'3 3.4
2017-Feb-19 11:33N 46°35' W 002°18'3 2.6
2017-Feb-19 10:33N 46°37' W 002°22'4 3.0
2017-Feb-19 09:19N 46°33' W 002°24'2 3.0
2017-Feb-19 08:30N 46°34' W 002°28'4 3.3
2017-Feb-19 07:16N 46°35' W 002°33'2 2.3
2017-Feb-19 06:30N 46°35' W 002°36'3 3.4
2017-Feb-19 05:32N 46°38' W 002°38'4 3.5
2017-Feb-19 04:24N 46°41' W 002°41'2 3.0
2017-Feb-19 03:33N 46°42' W 002°45'1 1.4
2017-Feb-19 02:32N 46°40' W 002°45'1 1.3
2017-Feb-19 01:28N 46°40' W 002°47'2 1.9
2017-Feb-19 00:12N 46°43' W 002°47'3 3.6
2017-Feb-18 23:25N 46°44' W 002°43'4 0.7
2017-Feb-18 17:12N 46°42' W 002°49'2 2.3
2017-Feb-18 16:32N 46°43' W 002°47'3 2.7
2017-Feb-18 15:28N 46°40' W 002°47'2 2.5
2017-Feb-18 14:31N 46°42' W 002°49'2 2.0
2017-Feb-18 13:33N 46°42' W 002°46'3 2.6
2017-Feb-18 12:33N 46°39' W 002°46'3 3.2
2017-Feb-18 11:28N 46°42' W 002°49'1 1.4
2017-Feb-18 10:31N 46°43' W 002°47'2 1.1
2017-Feb-18 08:33N 46°41' W 002°48'2 2.1
2017-Feb-18 07:31N 46°43' W 002°47'2 2.5
2017-Feb-18 06:33N 46°43' W 002°44'2 2.3
2017-Feb-18 05:33N 46°42' W 002°41'3 3.2
2017-Feb-18 04:33N 46°42' W 002°45'3 3.0
2017-Feb-18 03:33N 46°44' W 002°43'2 2.3
2017-Feb-18 02:32N 46°42' W 002°41'7 1.1
2017-Feb-17 20:33N 46°36' W 002°37'3 3.2
2017-Feb-17 19:30N 46°33' W 002°36'3 2.7
2017-Feb-17 18:30N 46°31' W 002°32'8 3.3
2017-Feb-17 16:12N 46°26' W 002°25'2 3.5
2017-Feb-17 15:33N 46°26' W 002°21'7 0.7
2017-Feb-17 06:16N 46°32' W 002°26'2 3.0
2017-Feb-17 05:33N 46°33' W 002°24'4 3.2
2017-Feb-17 04:15N 46°36' W 002°20'2 0.5
2017-Feb-17 01:05N 46°36' W 002°22'2 3.3
2017-Feb-17 00:33N 46°36' W 002°20'8 7.9
2017-Feb-16 23:32N 46°33' W 002°09'9 9.5
2017-Feb-16 22:33N 46°30' W 001°56'6 6.2
2017-Feb-16 21:33N 46°30' W 001°47'0 0.1
2017-Feb-16 20:33N 46°30' W 001°47'8 7.8
2017-Feb-16 19:33N 46°26' W 001°57'5 4.7
2017-Feb-16 18:33N 46°25' W 002°04'3 3.4
2017-Feb-16 17:33N 46°23' W 002°08'7 3.4
2017-Feb-16 15:33N 46°17' W 002°13'2 1.2
2017-Feb-16 13:33N 46°16' W 002°16'3 1.8
2017-Feb-16 12:04N 46°14' W 002°14'3 3.3
2017-Feb-16 11:05N 46°17' W 002°13'6 1.5
2017-Feb-16 07:18N 46°23' W 002°13'10 2.4
2017-Feb-16 03:13N 46°32' W 002°16'2 3.1
2017-Feb-16 02:33N 46°34' W 002°17'3 3.2
2017-Feb-16 01:33N 46°36' W 002°20'2 2.4
2017-Feb-16 00:33N 46°35' W 002°23'6 0.2
2017-Feb-14 22:33N 46°34' W 002°14'10 9.7
2017-Feb-14 21:33N 46°31' W 002°01'9 9.3
2017-Feb-14 20:33N 46°28' W 001°48'2 1.7
2017-Feb-14 19:33N 46°30' W 001°47'0 0.2
2017-Feb-14 18:33N 46°30' W 001°47'1 1.1
2017-Feb-14 17:33N 46°29' W 001°47'10 9.5
2017-Feb-14 16:33N 46°27' W 002°01'11 8.2
2017-Feb-14 15:16N 46°26' W 002°16'3 2.4
2017-Feb-14 14:12N 46°25' W 002°13'2 3.1
2017-Feb-14 13:28N 46°23' W 002°12'6 1.3
2017-Feb-14 08:33N 46°26' W 002°20'3 2.5
2017-Feb-14 07:29N 46°24' W 002°17'2 0.6
2017-Feb-14 04:32N 46°26' W 002°17'6 2.5
2017-Feb-14 02:15N 46°23' W 002°10'3 3.4
2017-Feb-14 01:24N 46°20' W 002°08'2 2.7
2017-Feb-14 00:31N 46°18' W 002°10'3 0.4
2017-Feb-13 17:10N 46°17' W 002°14'6 3.4
2017-Feb-13 15:31N 46°23' W 002°15'5 2.1
2017-Feb-13 13:20N 46°26' W 002°20'  

Dump ship's entire track history